createdAt,value
2023-01-13T00:01:42.298Z,7.80
2023-01-13T00:04:08.723Z,7.82
2023-01-13T00:06:35.119Z,7.82
2023-01-13T00:09:01.528Z,7.84
2023-01-13T00:11:27.955Z,7.87
2023-01-13T00:13:54.406Z,7.84
2023-01-13T00:16:20.937Z,7.85
2023-01-13T00:18:47.388Z,7.86
2023-01-13T00:21:13.864Z,7.92
2023-01-13T00:23:40.266Z,7.90
2023-01-13T00:26:06.625Z,7.91
2023-01-13T00:28:33.032Z,7.96
2023-01-13T00:30:59.469Z,7.93
2023-01-13T00:33:25.874Z,7.91
2023-01-13T00:35:52.263Z,7.87
2023-01-13T00:38:18.631Z,7.86
2023-01-13T00:40:45.040Z,7.87
2023-01-13T00:43:11.428Z,7.88
2023-01-13T00:45:37.861Z,7.82
2023-01-13T00:48:04.236Z,7.85
2023-01-13T00:50:30.639Z,7.86
2023-01-13T00:52:57.073Z,7.89
2023-01-13T00:55:23.472Z,7.92
2023-01-13T00:57:49.862Z,7.89
2023-01-13T01:00:16.275Z,7.93
2023-01-13T01:02:42.747Z,7.94
2023-01-13T01:05:09.152Z,8.00
2023-01-13T01:07:35.531Z,8.03
2023-01-13T01:10:01.932Z,8.02
2023-01-13T01:12:28.343Z,8.05
2023-01-13T01:14:54.711Z,8.06
2023-01-13T01:17:21.548Z,8.09
2023-01-13T01:19:47.958Z,8.09
2023-01-13T01:22:14.343Z,8.11
2023-01-13T01:24:40.800Z,8.10
2023-01-13T01:27:07.196Z,8.11
2023-01-13T01:29:33.601Z,8.14
2023-01-13T01:31:59.981Z,8.14
2023-01-13T01:34:26.368Z,8.12
2023-01-13T01:36:52.785Z,8.10
2023-01-13T01:39:19.168Z,8.11
2023-01-13T01:41:45.555Z,8.06
2023-01-13T01:44:11.957Z,8.03
2023-01-13T01:46:38.443Z,8.00
2023-01-13T01:49:04.825Z,7.93
2023-01-13T01:51:31.212Z,7.91
2023-01-13T01:53:57.609Z,7.86
2023-01-13T01:56:23.988Z,7.84
2023-01-13T01:58:50.441Z,7.82
2023-01-13T02:01:16.961Z,7.79
2023-01-13T02:03:43.423Z,7.81
2023-01-13T02:06:09.827Z,7.78
2023-01-13T02:08:36.251Z,7.77
2023-01-13T02:11:02.646Z,7.81
2023-01-13T02:13:29.067Z,7.78
2023-01-13T02:15:55.475Z,7.78
2023-01-13T02:18:21.847Z,7.78
2023-01-13T02:20:48.267Z,7.77
2023-01-13T02:23:14.686Z,7.82
2023-01-13T02:25:41.062Z,7.73
2023-01-13T02:28:07.501Z,7.64
2023-01-13T02:30:34.014Z,7.65
2023-01-13T02:33:00.412Z,7.58
2023-01-13T02:35:26.813Z,7.58
2023-01-13T02:37:53.283Z,7.53
2023-01-13T02:40:19.667Z,7.50
2023-01-13T02:42:46.085Z,7.61
2023-01-13T02:45:12.450Z,7.50
2023-01-13T02:47:38.821Z,7.52
2023-01-13T02:50:05.266Z,7.59
2023-01-13T02:52:31.676Z,7.48
2023-01-13T02:54:58.102Z,7.51
2023-01-13T02:57:24.528Z,7.53
2023-01-13T02:59:50.953Z,7.49
2023-01-13T03:02:17.796Z,7.47
2023-01-13T03:04:48.678Z,7.46
2023-01-13T03:07:15.070Z,7.44
2023-01-13T03:09:41.440Z,7.38
2023-01-13T03:12:07.849Z,7.36
2023-01-13T03:14:34.225Z,7.39
2023-01-13T03:17:00.612Z,7.41
2023-01-13T03:19:27.138Z,7.37
2023-01-13T03:21:53.577Z,7.35
2023-01-13T03:24:19.991Z,7.37
2023-01-13T03:26:46.396Z,7.35
2023-01-13T03:29:12.986Z,7.30
2023-01-13T03:31:39.400Z,7.26
2023-01-13T03:34:05.806Z,7.26
2023-01-13T03:36:32.298Z,7.29
2023-01-13T03:38:58.740Z,7.29
2023-01-13T03:41:25.171Z,7.21
2023-01-13T03:43:51.629Z,7.17
2023-01-13T03:46:18.127Z,7.17
2023-01-13T03:48:44.631Z,7.23
2023-01-13T03:51:11.081Z,7.29
2023-01-13T03:53:37.590Z,7.22
2023-01-13T03:56:04.097Z,7.18
2023-01-13T03:58:30.544Z,7.15
2023-01-13T04:00:57.091Z,7.17
2023-01-13T04:03:23.614Z,7.15
2023-01-13T04:05:50.034Z,7.14
2023-01-13T04:08:16.510Z,7.18
2023-01-13T04:10:42.938Z,7.16
2023-01-13T04:13:09.354Z,7.16
2023-01-13T04:15:35.826Z,7.18
2023-01-13T04:18:02.320Z,7.18
2023-01-13T04:20:28.763Z,7.18
2023-01-13T04:22:55.171Z,7.20
2023-01-13T04:25:21.609Z,7.18
2023-01-13T04:27:47.982Z,7.23
2023-01-13T04:30:14.403Z,7.12
2023-01-13T04:32:41.085Z,7.16
2023-01-13T04:35:07.497Z,7.08
2023-01-13T04:37:33.947Z,7.06
2023-01-13T04:40:00.361Z,7.09
2023-01-13T04:42:26.822Z,7.06
2023-01-13T04:44:53.252Z,7.06
2023-01-13T04:47:19.703Z,7.06
2023-01-13T04:49:46.137Z,6.99
2023-01-13T04:52:12.578Z,7.00
2023-01-13T04:54:39.036Z,6.97
2023-01-13T04:57:05.594Z,6.88
2023-01-13T04:59:33.961Z,6.85
2023-01-13T05:02:01.022Z,6.84
2023-01-13T05:04:28.603Z,6.88
2023-01-13T05:06:55.057Z,6.86
2023-01-13T05:09:28.932Z,6.79
2023-01-13T05:11:55.337Z,6.81
2023-01-13T05:14:23.996Z,6.79
2023-01-13T05:16:52.797Z,6.75
2023-01-13T05:19:22.277Z,6.72
2023-01-13T05:21:49.069Z,6.73
2023-01-13T05:24:17.567Z,6.77
2023-01-13T05:26:48.467Z,6.72
2023-01-13T05:29:15.175Z,6.66
2023-01-13T05:31:42.667Z,6.69
2023-01-13T05:34:09.101Z,6.63
2023-01-13T05:36:36.564Z,6.65
2023-01-13T05:39:02.968Z,6.63
2023-01-13T05:41:32.143Z,6.70
2023-01-13T05:43:58.541Z,6.60
2023-01-13T05:46:25.639Z,6.60
2023-01-13T05:48:52.071Z,6.60
2023-01-13T05:51:19.037Z,6.58
2023-01-13T05:53:45.520Z,6.56
2023-01-13T05:56:12.503Z,6.61
2023-01-13T05:58:38.894Z,6.51
2023-01-13T06:01:05.962Z,6.54
2023-01-13T06:03:35.019Z,6.47
2023-01-13T06:06:01.589Z,6.51
2023-01-13T06:08:30.850Z,6.47
2023-01-13T06:10:58.661Z,6.43
2023-01-13T06:13:25.489Z,6.40
2023-01-13T06:15:52.099Z,6.41
2023-01-13T06:18:18.836Z,6.43
2023-01-13T06:20:45.331Z,6.40
2023-01-13T06:23:13.812Z,6.37
2023-01-13T06:25:40.226Z,6.35
2023-01-13T06:30:47.008Z,6.35
2023-01-13T06:33:13.451Z,6.28
2023-01-13T06:35:40.796Z,6.22
2023-01-13T06:38:07.251Z,6.23
2023-01-13T06:40:33.732Z,6.20
2023-01-13T06:43:00.165Z,6.23
2023-01-13T06:45:26.538Z,6.21
2023-01-13T06:47:52.952Z,6.24
2023-01-13T06:50:19.402Z,6.22
2023-01-13T06:52:45.856Z,6.24
2023-01-13T06:55:12.268Z,6.28
2023-01-13T06:57:38.670Z,6.22
2023-01-13T07:00:05.105Z,6.22
2023-01-13T07:02:31.607Z,6.33
2023-01-13T07:04:58.076Z,6.25
2023-01-13T07:07:24.491Z,6.29
2023-01-13T07:09:50.956Z,6.31
2023-01-13T07:12:17.404Z,6.25
2023-01-13T07:14:43.817Z,6.25
2023-01-13T07:17:10.261Z,6.29
2023-01-13T07:19:36.717Z,6.25
2023-01-13T07:22:03.210Z,6.29
2023-01-13T07:24:29.614Z,6.36
2023-01-13T07:26:56.095Z,6.30
2023-01-13T07:29:22.564Z,6.25
2023-01-13T07:31:50.088Z,6.31
2023-01-13T07:34:16.852Z,6.37
2023-01-13T07:36:43.419Z,6.30
2023-01-13T07:39:10.146Z,6.31
2023-01-13T07:41:36.650Z,6.32
2023-01-13T07:44:03.079Z,6.33
2023-01-13T07:46:29.491Z,6.28
2023-01-13T07:48:55.947Z,6.32
2023-01-13T07:51:22.367Z,6.38
2023-01-13T07:53:48.798Z,6.33
2023-01-13T07:56:15.370Z,6.45
2023-01-13T07:58:41.786Z,6.38
2023-01-13T08:01:08.270Z,6.38
2023-01-13T08:03:34.848Z,6.45
2023-01-13T08:06:01.266Z,6.46
2023-01-13T08:08:27.684Z,6.52
2023-01-13T08:10:54.124Z,6.49
2023-01-13T08:13:20.702Z,6.51
2023-01-13T08:15:47.088Z,6.45
2023-01-13T08:18:13.519Z,6.38
2023-01-13T08:20:39.963Z,6.32
2023-01-13T08:23:07.522Z,6.25
2023-01-13T08:25:34.061Z,6.25
2023-01-13T08:28:00.502Z,6.29
2023-01-13T08:30:26.974Z,6.31
2023-01-13T08:32:53.477Z,6.31
2023-01-13T08:35:20.395Z,6.31
2023-01-13T08:37:46.853Z,6.42
2023-01-13T08:40:13.330Z,6.37
2023-01-13T08:42:39.822Z,6.37
2023-01-13T08:45:06.247Z,6.41
2023-01-13T08:47:32.690Z,6.46
2023-01-13T08:49:59.127Z,6.48
2023-01-13T08:52:25.747Z,6.51
2023-01-13T08:54:52.139Z,6.57
2023-01-13T08:57:18.619Z,6.66
2023-01-13T08:59:45.130Z,6.56
2023-01-13T09:02:11.747Z,6.61
2023-01-13T09:04:38.329Z,6.62
2023-01-13T09:07:04.829Z,6.63
2023-01-13T09:09:31.284Z,6.69
2023-01-13T09:11:57.693Z,6.74
2023-01-13T09:14:24.142Z,6.85
2023-01-13T09:16:50.580Z,6.77
2023-01-13T09:19:16.992Z,6.83
2023-01-13T09:21:43.395Z,6.86
2023-01-13T09:24:09.821Z,6.88
2023-01-13T09:26:36.293Z,6.90
2023-01-13T09:29:02.732Z,7.03
2023-01-13T09:31:29.191Z,7.15
2023-01-13T09:33:55.663Z,7.14
2023-01-13T09:36:22.047Z,7.22
2023-01-13T09:38:48.491Z,7.26
2023-01-13T09:41:14.921Z,7.36
2023-01-13T09:43:41.321Z,7.21
2023-01-13T09:46:07.762Z,7.11
2023-01-13T09:48:34.190Z,7.18
2023-01-13T09:51:00.904Z,6.95
2023-01-13T09:53:27.466Z,6.89
2023-01-13T09:55:53.907Z,6.82
2023-01-13T09:58:20.347Z,6.78
2023-01-13T10:00:46.833Z,6.81
2023-01-13T10:03:13.245Z,6.75
2023-01-13T10:05:39.728Z,6.73
2023-01-13T10:08:06.220Z,6.74
2023-01-13T10:10:32.913Z,6.77
2023-01-13T10:12:59.447Z,6.73
2023-01-13T10:15:26.148Z,6.85
2023-01-13T10:17:52.562Z,6.80
2023-01-13T10:20:18.950Z,6.95
2023-01-13T10:22:45.361Z,6.82
2023-01-13T10:25:11.844Z,6.86
2023-01-13T10:27:38.240Z,7.03
2023-01-13T10:30:04.762Z,6.90
2023-01-13T10:32:31.191Z,6.89
2023-01-13T10:34:57.680Z,7.03
2023-01-13T10:37:24.119Z,7.15
2023-01-13T10:39:50.531Z,7.33
2023-01-13T10:42:16.939Z,7.44
2023-01-13T10:44:43.354Z,7.40
2023-01-13T10:47:09.749Z,7.38
2023-01-13T10:49:36.190Z,7.41
2023-01-13T10:52:02.631Z,7.45
2023-01-13T10:54:29.101Z,7.56
2023-01-13T10:56:55.541Z,7.64
2023-01-13T10:59:21.965Z,7.61
2023-01-13T11:01:48.506Z,7.52
2023-01-13T11:04:15.107Z,7.54
2023-01-13T11:06:41.557Z,7.56
2023-01-13T11:09:08.298Z,7.52
2023-01-13T11:11:35.941Z,7.62
2023-01-13T11:14:03.489Z,7.58
2023-01-13T11:16:29.968Z,7.57
2023-01-13T11:18:56.441Z,7.56
2023-01-13T11:21:22.990Z,7.49
2023-01-13T11:23:49.470Z,7.40
2023-01-13T11:26:15.933Z,7.41
2023-01-13T11:28:42.347Z,7.45
2023-01-13T11:31:08.792Z,7.50
2023-01-13T11:33:35.255Z,7.43
2023-01-13T11:36:01.628Z,7.45
2023-01-13T11:38:28.143Z,7.43
2023-01-13T11:40:54.542Z,7.37
2023-01-13T11:43:22.533Z,7.49
2023-01-13T11:45:48.985Z,7.37
2023-01-13T11:48:15.536Z,7.37
2023-01-13T11:50:42.069Z,7.26
2023-01-13T11:53:08.715Z,7.26
2023-01-13T11:55:37.616Z,7.37
2023-01-13T11:58:04.118Z,7.46
2023-01-13T12:00:31.225Z,7.37
2023-01-13T12:02:59.630Z,7.37
2023-01-13T12:05:26.519Z,7.23
2023-01-13T12:07:52.956Z,7.02
2023-01-13T12:10:19.365Z,7.01
2023-01-13T12:12:45.953Z,6.98
2023-01-13T12:15:12.424Z,7.00
2023-01-13T12:17:38.833Z,6.99
2023-01-13T12:20:05.282Z,7.06
2023-01-13T12:22:32.289Z,7.08
2023-01-13T12:24:58.868Z,7.14
2023-01-13T12:27:25.510Z,7.12
2023-01-13T12:29:51.946Z,7.05
2023-01-13T12:32:18.402Z,7.13
2023-01-13T12:34:44.819Z,6.95
2023-01-13T12:37:11.288Z,6.95
2023-01-13T12:39:37.906Z,6.85
2023-01-13T12:42:04.319Z,6.80
2023-01-13T12:44:30.759Z,6.70
2023-01-13T12:46:57.140Z,6.69
2023-01-13T12:49:23.576Z,6.62
2023-01-13T12:51:49.977Z,6.60
2023-01-13T12:54:16.360Z,6.50
2023-01-13T12:56:42.763Z,6.44
2023-01-13T12:59:09.161Z,6.35
2023-01-13T13:01:35.617Z,6.33
2023-01-13T13:04:02.151Z,6.33
2023-01-13T13:06:28.566Z,6.36
2023-01-13T13:08:54.938Z,6.43
2023-01-13T13:11:21.317Z,6.56
2023-01-13T13:13:47.708Z,6.53
2023-01-13T13:16:14.148Z,6.56
2023-01-13T13:18:40.693Z,6.63
2023-01-13T13:21:07.092Z,6.69
2023-01-13T13:23:33.534Z,6.69
2023-01-13T13:25:59.949Z,6.77
2023-01-13T13:28:26.363Z,6.73
2023-01-13T13:30:52.797Z,6.72
2023-01-13T13:33:19.259Z,6.70
2023-01-13T13:35:45.677Z,6.70
2023-01-13T13:38:12.134Z,6.69
2023-01-13T13:40:38.566Z,6.70
2023-01-13T13:43:04.981Z,6.69
2023-01-13T13:45:31.391Z,6.70
2023-01-13T13:47:57.996Z,6.74
2023-01-13T13:50:24.462Z,6.76
2023-01-13T13:52:50.950Z,6.79
2023-01-13T13:55:17.406Z,6.85
2023-01-13T13:57:43.804Z,6.98
2023-01-13T14:00:10.230Z,7.17
2023-01-13T14:02:36.606Z,7.18
2023-01-13T14:05:03.118Z,7.23
2023-01-13T14:07:29.632Z,7.20
2023-01-13T14:09:56.098Z,7.20
2023-01-13T14:12:22.544Z,7.22
2023-01-13T14:14:48.935Z,7.20
2023-01-13T14:17:15.360Z,7.24
2023-01-13T14:19:41.761Z,7.30
2023-01-13T14:22:08.162Z,7.26
2023-01-13T14:24:34.581Z,7.26
2023-01-13T14:27:01.003Z,7.34
2023-01-13T14:29:27.389Z,7.32
2023-01-13T14:31:53.813Z,7.31
2023-01-13T14:34:31.329Z,7.25
2023-01-13T14:36:59.387Z,7.22
2023-01-13T14:39:25.800Z,7.21
2023-01-13T14:41:52.236Z,7.23
2023-01-13T14:44:18.626Z,7.17
2023-01-13T14:46:45.003Z,7.17
2023-01-13T14:49:11.419Z,7.30
2023-01-13T14:51:37.854Z,7.22
2023-01-13T14:54:04.280Z,7.19
2023-01-13T14:56:31.217Z,7.15
2023-01-13T14:58:57.662Z,7.18
2023-01-13T15:01:24.182Z,7.07
2023-01-13T15:03:50.634Z,7.07
2023-01-13T15:06:17.003Z,7.08
2023-01-13T15:08:43.395Z,7.04
2023-01-13T15:11:09.797Z,7.01
2023-01-13T15:13:36.189Z,7.04
2023-01-13T15:16:02.656Z,6.90
2023-01-13T15:18:29.121Z,6.76
2023-01-13T15:20:55.530Z,6.63
2023-01-13T15:23:22.006Z,6.59
2023-01-13T15:25:48.370Z,6.53
2023-01-13T15:28:14.768Z,6.45
2023-01-13T15:30:41.263Z,6.39
2023-01-13T15:33:07.661Z,6.33
2023-01-13T15:35:34.051Z,6.31
2023-01-13T15:38:00.450Z,6.32
2023-01-13T15:40:26.899Z,6.25
2023-01-13T15:42:53.317Z,6.24
2023-01-13T15:45:19.706Z,6.23
2023-01-13T15:47:46.102Z,6.20
2023-01-13T15:50:12.551Z,6.23
2023-01-13T15:52:39.077Z,6.21
2023-01-13T15:55:05.508Z,6.21
2023-01-13T15:57:31.962Z,6.15
2023-01-13T15:59:58.393Z,6.11
2023-01-13T16:02:24.812Z,6.08
2023-01-13T16:04:51.225Z,6.09
2023-01-13T16:07:17.637Z,6.07
2023-01-13T16:09:44.028Z,6.09
2023-01-13T16:12:10.436Z,6.07
2023-01-13T16:14:36.882Z,6.05
2023-01-13T16:17:03.268Z,6.04
2023-01-13T16:19:29.672Z,6.09
2023-01-13T16:21:56.086Z,6.10
2023-01-13T16:24:23.730Z,6.11
2023-01-13T16:26:50.131Z,6.09
2023-01-13T16:29:16.541Z,6.08
2023-01-13T16:31:43.008Z,6.10
2023-01-13T16:34:09.446Z,6.19
2023-01-13T16:36:35.822Z,6.08
2023-01-13T16:39:02.256Z,6.06
2023-01-13T16:41:28.674Z,6.05
2023-01-13T16:43:55.056Z,6.04
2023-01-13T16:46:21.481Z,6.00
2023-01-13T16:48:47.903Z,6.01
2023-01-13T16:51:14.284Z,6.03
2023-01-13T16:53:40.661Z,6.06
2023-01-13T16:56:07.058Z,5.97
2023-01-13T16:58:33.478Z,5.94
2023-01-13T17:00:59.910Z,5.94
2023-01-13T17:03:26.357Z,5.94
2023-01-13T17:05:52.777Z,5.99
2023-01-13T17:08:19.180Z,6.01
2023-01-13T17:10:45.586Z,5.98
2023-01-13T17:13:16.776Z,5.98
2023-01-13T17:15:43.559Z,5.98
2023-01-13T17:18:09.954Z,5.96
2023-01-13T17:20:36.312Z,5.93
2023-01-13T17:23:02.693Z,5.95
2023-01-13T17:25:29.089Z,5.95
2023-01-13T17:27:55.461Z,6.02
2023-01-13T17:30:21.924Z,6.06
2023-01-13T17:32:48.328Z,6.06
2023-01-13T17:35:14.725Z,6.05
2023-01-13T17:37:41.103Z,6.01
2023-01-13T17:40:07.504Z,5.97
2023-01-13T17:42:33.976Z,5.96
2023-01-13T17:45:00.365Z,6.02
2023-01-13T17:47:26.777Z,6.10
2023-01-13T17:49:53.135Z,6.10
2023-01-13T17:52:19.523Z,6.16
2023-01-13T17:54:45.953Z,6.06
2023-01-13T17:57:12.360Z,6.06
2023-01-13T17:59:38.750Z,6.05
2023-01-13T18:02:05.319Z,6.01
2023-01-13T18:04:31.755Z,6.01
2023-01-13T18:06:58.150Z,6.00
2023-01-13T18:09:24.553Z,5.98
2023-01-13T18:11:50.931Z,6.01
2023-01-13T18:14:17.331Z,6.05
2023-01-13T18:16:43.746Z,6.07
2023-01-13T18:19:10.155Z,6.38
2023-01-13T18:21:36.547Z,6.28
2023-01-13T18:24:02.921Z,6.15
2023-01-13T18:26:29.322Z,6.13
2023-01-13T18:28:55.709Z,5.96
2023-01-13T18:31:22.117Z,5.84
2023-01-13T18:33:48.523Z,5.76
2023-01-13T18:36:14.932Z,5.67
2023-01-13T18:38:41.315Z,5.64
2023-01-13T18:41:07.728Z,5.59
2023-01-13T18:43:34.121Z,5.56
2023-01-13T18:46:00.552Z,5.52
2023-01-13T18:48:26.950Z,5.48
2023-01-13T18:50:53.316Z,5.46
2023-01-13T18:53:19.719Z,5.41
2023-01-13T18:55:46.093Z,5.39
2023-01-13T18:58:12.478Z,5.42
2023-01-13T19:00:38.854Z,5.42
2023-01-13T19:05:32.281Z,5.38
2023-01-13T19:07:58.701Z,5.35
2023-01-13T19:10:25.075Z,5.47
2023-01-13T19:12:51.460Z,5.46
2023-01-13T19:15:17.858Z,5.51
2023-01-13T19:17:44.327Z,5.59
2023-01-13T19:20:10.729Z,5.64
2023-01-13T19:22:37.131Z,5.70
2023-01-13T19:25:03.520Z,5.75
2023-01-13T19:27:29.918Z,5.81
2023-01-13T19:29:56.296Z,5.81
2023-01-13T19:32:22.873Z,5.91
2023-01-13T19:34:49.252Z,5.94
2023-01-13T19:37:15.664Z,5.96
2023-01-13T19:39:42.079Z,6.02
2023-01-13T19:42:08.495Z,6.06
2023-01-13T19:44:34.873Z,6.07
2023-01-13T19:47:01.286Z,6.11
2023-01-13T19:49:27.883Z,6.12
2023-01-13T19:51:54.276Z,6.14
2023-01-13T19:54:20.667Z,6.18
2023-01-13T19:56:47.099Z,6.17
2023-01-13T19:59:13.509Z,6.27
2023-01-13T20:01:40.049Z,6.23
2023-01-13T20:04:06.497Z,6.21
2023-01-13T20:06:32.889Z,6.21
2023-01-13T20:08:59.340Z,6.24
2023-01-13T20:11:25.720Z,6.30
2023-01-13T20:13:52.114Z,6.31
2023-01-13T20:16:18.532Z,6.27
2023-01-13T20:18:44.965Z,6.23
2023-01-13T20:21:11.341Z,6.21
2023-01-13T20:23:37.749Z,6.20
2023-01-13T20:26:04.148Z,6.17
2023-01-13T20:28:30.517Z,6.12
2023-01-13T20:30:56.986Z,6.01
2023-01-13T20:33:23.347Z,5.98
2023-01-13T20:35:49.717Z,5.91
2023-01-13T20:38:16.110Z,5.90
2023-01-13T20:40:42.614Z,5.87
2023-01-13T20:43:09.014Z,5.84
2023-01-13T20:45:35.422Z,5.86
2023-01-13T20:48:01.802Z,5.87
2023-01-13T20:50:28.209Z,5.89
2023-01-13T20:52:54.598Z,5.94
2023-01-13T20:55:20.995Z,5.97
2023-01-13T20:57:47.384Z,6.01
2023-01-13T21:00:13.798Z,6.05
2023-01-13T21:02:40.228Z,6.07
2023-01-13T21:05:06.605Z,6.10
2023-01-13T21:07:33.002Z,6.11
2023-01-13T21:09:59.400Z,6.12
2023-01-13T21:12:25.806Z,6.11
2023-01-13T21:14:52.208Z,6.13
2023-01-13T21:17:18.605Z,6.14
2023-01-13T21:19:44.968Z,6.11
2023-01-13T21:22:11.383Z,6.10
2023-01-13T21:24:37.754Z,6.08
2023-01-13T21:27:04.180Z,6.03
2023-01-13T21:29:31.339Z,6.03
2023-01-13T21:31:57.783Z,6.00
2023-01-13T21:34:24.266Z,6.00
2023-01-13T21:36:50.664Z,6.03
2023-01-13T21:39:17.084Z,6.00
2023-01-13T21:41:43.466Z,6.06
2023-01-13T21:44:09.844Z,6.02
2023-01-13T21:46:36.252Z,6.03
2023-01-13T21:49:02.646Z,6.06
2023-01-13T21:51:29.031Z,6.05
2023-01-13T21:53:55.460Z,6.04
2023-01-13T21:56:21.859Z,6.00
2023-01-13T21:58:48.279Z,5.97
2023-01-13T22:01:14.785Z,5.95
2023-01-13T22:03:41.324Z,5.92
2023-01-13T22:06:07.766Z,5.88
2023-01-13T22:08:34.154Z,5.89
2023-01-13T22:11:00.598Z,5.90
2023-01-13T22:13:27.020Z,5.91
2023-01-13T22:15:53.402Z,5.92
2023-01-13T22:18:19.785Z,5.90
2023-01-13T22:20:46.160Z,5.91
2023-01-13T22:23:12.552Z,5.91
2023-01-13T22:25:39.053Z,5.90
2023-01-13T22:28:05.417Z,5.91
2023-01-13T22:30:31.841Z,5.89
2023-01-13T22:32:58.255Z,5.88
2023-01-13T22:35:24.642Z,5.85
2023-01-13T22:37:51.143Z,5.87
2023-01-13T22:40:17.515Z,5.81
2023-01-13T22:42:43.909Z,5.80
2023-01-13T22:45:10.303Z,5.82
2023-01-13T22:47:36.679Z,5.76
2023-01-13T22:50:03.041Z,5.73
2023-01-13T22:52:29.428Z,5.68
2023-01-13T22:54:55.864Z,5.67
2023-01-13T22:57:24.046Z,5.67
2023-01-13T22:59:50.646Z,5.70
2023-01-13T23:02:17.141Z,5.71
2023-01-13T23:04:43.636Z,5.72
2023-01-13T23:07:10.150Z,5.76
2023-01-13T23:09:36.552Z,5.79
2023-01-13T23:12:02.945Z,5.83
2023-01-13T23:14:29.378Z,5.87
2023-01-13T23:16:55.826Z,5.91
2023-01-13T23:19:22.511Z,5.96
2023-01-13T23:21:48.895Z,6.00
2023-01-13T23:24:15.524Z,6.02
2023-01-13T23:26:41.896Z,5.98
2023-01-13T23:29:08.289Z,6.07
2023-01-13T23:31:34.703Z,6.01
2023-01-13T23:34:01.112Z,5.95
2023-01-13T23:36:27.485Z,5.92
2023-01-13T23:38:53.880Z,5.95
2023-01-13T23:41:20.324Z,5.92
2023-01-13T23:43:46.725Z,5.92
2023-01-13T23:46:13.182Z,5.92
2023-01-13T23:48:39.646Z,5.94
2023-01-13T23:51:06.029Z,6.00
2023-01-13T23:53:32.441Z,5.95
2023-01-13T23:55:58.847Z,5.98
2023-01-13T23:58:25.239Z,6.04
